Bookmark and Share
Track history (hours):
 

Cala Pula

Last reported at 2014-Apr-20 07:29 UTC. Time now 2014-Apr-21 07:32 UTC.
Position N 36°01' W 005°27'.

Length 189 m; draft 8.4 m.

Type: Cargo ship. MMSI: 247585000.

NotesDate/timePositionNaut miles runAvg speedWind from/ knotsBaromVisibWave heightAir tempDewpointWater temp
2014-Apr-20 07:29N 36°01' W 005°27'42017.6
2014-Apr-19 07:33N 39°59' E 001°52'2019.6
2014-Apr-19 06:33N 40°16' E 002°06'2020.4
2014-Apr-19 05:34N 40°33' E 002°20'6019.6
2014-Apr-19 02:30N 41°24' E 003°02'1920.0
2014-Apr-19 01:33N 41°40' E 003°16'2019.7
2014-Apr-19 00:34N 41°52' E 003°36'2019.7
2014-Apr-18 23:33N 42°02' E 003°59'1918.7
2014-Apr-18 22:33N 42°11' E 004°21'2019.6
2014-Apr-18 21:32N 42°21' E 004°45'2119.3
2014-Apr-18 20:25N 42°32' E 005°10'2218.7
2014-Apr-18 19:15N 42°42' E 005°36'1319.3
2014-Apr-18 18:33N 42°46' E 005°54'1919.3
2014-Apr-18 17:33N 42°48' E 006°20'2019.7
2014-Apr-18 16:32N 43°01' E 006°42'10319.3
2014-Apr-18 11:13N 44°09' E 008°27'710.6
2014-Apr-18 10:33N 44°16' E 008°27'0 0.2
2014-Apr-18 09:29N 44°16' E 008°27'0 0.1
2014-Apr-18 08:31N 44°16' E 008°27'0 0.0
2014-Apr-18 07:31N 44°16' E 008°27'0 0.0
2014-Apr-18 06:31N 44°16' E 008°27'0 0.0
2014-Apr-18 05:31N 44°16' E 008°27'0 0.0
2014-Apr-18 04:25N 44°16' E 008°27'0 0.0
2014-Apr-18 03:31N 44°16' E 008°27'0 0.0
2014-Apr-18 02:31N 44°16' E 008°27'0 0.0
2014-Apr-18 01:31N 44°16' E 008°27'0 0.0
2014-Apr-18 00:31N 44°16' E 008°27'0 0.0
2014-Apr-17 23:31N 44°16' E 008°27'0 0.0
2014-Apr-17 22:31N 44°16' E 008°27'0 0.0
2014-Apr-17 21:31N 44°16' E 008°27'0 0.0
2014-Apr-17 20:31N 44°16' E 008°27'0 0.0
2014-Apr-17 19:31N 44°16' E 008°27'0 0.0
2014-Apr-17 18:31N 44°16' E 008°27'0 0.0
2014-Apr-17 17:31N 44°16' E 008°27'0 0.0
2014-Apr-17 16:31N 44°16' E 008°27'0 0.0
2014-Apr-17 15:31N 44°16' E 008°27'0 0.0
2014-Apr-17 14:31N 44°16' E 008°27'133 8.8
2014-Apr-16 23:23N 42°45' E 006°14'7819.3
2014-Apr-16 19:20N 42°08' E 004°41'2318.7
2014-Apr-16 18:07N 41°57' E 004°14'1220.4
2014-Apr-16 17:33N 41°52' E 003°60'2121.1
2014-Apr-16 16:33N 41°41' E 003°35'2120.6
2014-Apr-16 15:32N 41°32' E 003°10'2321.0
2014-Apr-16 14:26N 41°20' E 002°43'3820.1
2014-Apr-16 12:31N 41°03' E 001°58'458 9.8
2014-Apr-14 13:34N 35°59' W 005°20'  

Dump ship's entire track history

sailing weather and tide predictions

Cala Pula — IBID — position and weather